Home   Weather   India   Ballia   Past weeks
Flag for India

Past Weather in Ballia, Uttar Pradesh, India — Yesterday and Last 2 Weeks

Currently: 90 °F. Fog. (Weather station: Patna Airport, India). See more current weather

Past Weather in Ballia — Graph

°F

Ballia Temperature Yesterday

Maximum temperature yesterday: 99 °F (at 12:00 pm)
Minimum temperature yesterday: 90 °F (at 5:00 am)
Average temperature yesterday: 94 °F

High & Low Weather Summary for the Past Weeks

 TemperatureHumidityPressure
High99 °F (Jul 15, 1:30 pm)100% (Jul 5, 3:00 am)29.65 "Hg (Jul 5, 3:00 am)
Low82 °F (Jul 6, 6:30 am)64% (Jul 18, 3:00 pm)29.36 "Hg (Jul 14, 3:30 pm)
Average90 °F89%29.51 "Hg
* Reported Jul 5 1:30 am — Jul 20 2:00 am, Ballia. Weather by CustomWeather, © 2024

Note: Actual official high and low records may vary slightly from our data, if they occured in-between our weather recording intervals... More about our weather records

Ballia Weather History for the Previous 24 Hours

Scroll right to see more
 ConditionsComfort  
Time TempWeatherWind HumidityBarometerVisibility
2:00 am
Sat, Jul 20
91 °FFog.8 mph89%29.45 "Hg2 mi
12:30 am91 °FFog.8 mph89%29.47 "Hg2 mi
12:00 am93 °FFog.9 mph84%29.47 "Hg2 mi
11:30 pm
Fri, Jul 19
91 °FFog.8 mph94%29.47 "Hg2 mi
11:00 pm91 °FFog.9 mph89%29.47 "Hg2 mi
10:30 pm91 °FFog.8 mph94%29.47 "Hg2 mi
10:00 pm93 °FFog.6 mph89%29.47 "Hg2 mi
9:30 pm91 °FFog.6 mph94%29.45 "Hg2 mi
9:00 pm91 °FFog.3 mph94%29.45 "Hg2 mi
8:30 pm93 °FFog.5 mph89%29.45 "Hg2 mi
8:00 pm93 °FFog.3 mph89%29.42 "Hg2 mi
7:00 pm93 °FFog.5 mph84%29.42 "Hg2 mi
6:30 pm95 °FFog.5 mph80%29.39 "Hg2 mi
6:00 pm97 °FBroken clouds.6 mph71%29.39 "Hg2 mi
5:30 pm97 °FBroken clouds.6 mph71%29.39 "Hg2 mi
5:00 pm97 °FBroken clouds.6 mph75%29.39 "Hg2 mi
4:30 pm97 °FBroken clouds.6 mph71%29.39 "Hg2 mi
4:00 pm97 °FBroken clouds.5 mph71%29.39 "Hg2 mi
3:30 pm97 °FBroken clouds.7 mph67%29.39 "Hg2 mi
3:00 pm97 °FBroken clouds.8 mph71%29.39 "Hg2 mi
2:33 pm97 °FBroken clouds.5 mph67%29.42 "Hg2 mi
2:00 pm97 °FBroken clouds.8 mph67%29.42 "Hg3 mi
1:30 pm99 °FBroken clouds.5 mph71%29.42 "Hg3 mi
1:00 pm99 °FBroken clouds.7 mph67%29.42 "Hg3 mi
12:30 pm99 °FBroken clouds.9 mph71%29.45 "Hg3 mi
12:00 pm99 °FBroken clouds.7 mph71%29.45 "Hg3 mi
11:00 am97 °FBroken clouds.8 mph71%29.47 "Hg3 mi
10:30 am97 °FBroken clouds.8 mph75%29.47 "Hg3 mi
10:00 am97 °FScattered clouds.8 mph75%29.47 "Hg3 mi
9:30 am95 °FScattered clouds.9 mph80%29.47 "Hg3 mi
9:00 am95 °FFog.10 mph80%29.47 "Hg3 mi
8:30 am91 °FFog.8 mph89%29.47 "Hg2 mi
8:00 am91 °FFog.7 mph94%29.47 "Hg2 mi
7:30 am91 °FFog.8 mph89%29.50 "Hg2 mi
6:30 am90 °FFog.7 mph94%29.47 "Hg2 mi
6:00 am90 °FFog.8 mph94%29.47 "Hg2 mi
5:30 am90 °FFog.8 mph94%29.47 "Hg2 mi
5:00 am90 °FFog.8 mph94%29.47 "Hg2 mi
4:30 am91 °FFog.7 mph89%29.47 "Hg2 mi
3:00 am91 °FFog.8 mph89%29.47 "Hg2 mi
Weather by CustomWeather, © 2024

See weather overview